createdAt,value
2022-11-29T00:00:52.620Z,98968.80
2022-11-29T00:03:50.094Z,98971.40
2022-11-29T00:06:47.596Z,98972.60
2022-11-29T00:09:45.060Z,98966.80
2022-11-29T00:12:42.525Z,98969.20
2022-11-29T00:15:40.044Z,98972.00
2022-11-29T00:18:37.489Z,98966.00
2022-11-29T00:21:34.957Z,98966.60
2022-11-29T00:24:33.004Z,98968.40
2022-11-29T00:27:30.463Z,98965.60
2022-11-29T00:30:28.076Z,98965.00
2022-11-29T00:33:25.685Z,98966.60
2022-11-29T00:36:23.136Z,98969.00
2022-11-29T00:39:20.595Z,98963.80
2022-11-29T00:42:18.079Z,98965.00
2022-11-29T00:45:15.546Z,98963.20
2022-11-29T00:48:13.025Z,98964.80
2022-11-29T00:51:10.503Z,98965.80
2022-11-29T00:54:07.961Z,98966.00
2022-11-29T00:57:05.428Z,98964.80
2022-11-29T01:00:02.938Z,98962.20
2022-11-29T01:03:00.393Z,98966.60
2022-11-29T01:05:57.837Z,98970.40
2022-11-29T01:08:55.307Z,98965.00
2022-11-29T01:11:52.762Z,98965.00
2022-11-29T01:14:50.209Z,98971.80
2022-11-29T01:17:49.210Z,98977.60
2022-11-29T01:20:46.688Z,98975.00
2022-11-29T01:23:44.169Z,98971.40
2022-11-29T01:26:41.644Z,98968.00
2022-11-29T01:29:39.117Z,98967.80
2022-11-29T01:32:36.591Z,98961.80
2022-11-29T01:35:34.073Z,98967.00
2022-11-29T01:38:31.546Z,98965.60
2022-11-29T01:41:29.005Z,98966.20
2022-11-29T01:44:26.483Z,98964.20
2022-11-29T01:47:23.933Z,98971.60
2022-11-29T01:50:21.390Z,98966.60
2022-11-29T01:53:18.878Z,98961.40
2022-11-29T01:56:16.479Z,98965.20
2022-11-29T01:59:14.664Z,98957.60
2022-11-29T02:02:12.227Z,98961.00
2022-11-29T02:05:09.695Z,98960.00
2022-11-29T02:08:07.610Z,98965.40
2022-11-29T02:11:05.059Z,98958.80
2022-11-29T02:14:02.531Z,98958.60
2022-11-29T02:16:59.976Z,98959.00
2022-11-29T02:19:57.440Z,98962.00
2022-11-29T02:22:54.916Z,98957.80
2022-11-29T02:25:52.363Z,98957.00
2022-11-29T02:28:49.850Z,98956.40
2022-11-29T02:31:47.285Z,98956.20
2022-11-29T02:34:45.063Z,98961.00
2022-11-29T02:37:42.768Z,98963.60
2022-11-29T02:40:40.247Z,98966.20
2022-11-29T02:43:37.701Z,98964.00
2022-11-29T02:46:35.225Z,98967.40
2022-11-29T02:49:32.733Z,98962.20
2022-11-29T02:52:30.186Z,98963.60
2022-11-29T02:55:27.645Z,98969.40
2022-11-29T02:58:25.121Z,98971.20
2022-11-29T03:01:22.675Z,98971.00
2022-11-29T03:04:20.230Z,98975.60
2022-11-29T03:07:17.859Z,98982.20
2022-11-29T03:10:15.343Z,98985.80
2022-11-29T03:13:12.799Z,98983.60
2022-11-29T03:16:10.328Z,98983.00
2022-11-29T03:19:07.822Z,98982.60
2022-11-29T03:22:05.342Z,98983.80
2022-11-29T03:25:02.853Z,98984.40
2022-11-29T03:28:00.304Z,98990.00
2022-11-29T03:30:57.824Z,98990.60
2022-11-29T03:33:55.340Z,98993.80
2022-11-29T03:36:52.813Z,98995.80
2022-11-29T03:39:50.284Z,98999.80
2022-11-29T03:42:47.800Z,99005.00
2022-11-29T03:45:45.249Z,99004.20
2022-11-29T03:48:42.726Z,99004.60
2022-11-29T03:51:40.186Z,99001.20
2022-11-29T03:54:37.628Z,99002.40
2022-11-29T03:57:35.082Z,99006.00
2022-11-29T04:00:32.541Z,99002.20
2022-11-29T04:03:29.998Z,98996.00
2022-11-29T04:06:27.464Z,98996.20
2022-11-29T04:09:25.047Z,98994.60
2022-11-29T04:12:22.484Z,99000.80
2022-11-29T04:15:19.923Z,98999.20
2022-11-29T04:18:17.383Z,99002.00
2022-11-29T04:21:14.852Z,99003.60
2022-11-29T04:24:12.306Z,99003.00
2022-11-29T04:27:09.771Z,99009.20
2022-11-29T04:30:07.751Z,99007.80
2022-11-29T04:33:05.213Z,99002.40
2022-11-29T04:36:02.677Z,99008.40
2022-11-29T04:39:00.132Z,99013.80
2022-11-29T04:41:57.601Z,99016.20
2022-11-29T04:44:55.042Z,99017.00
2022-11-29T04:47:52.508Z,99022.40
2022-11-29T04:50:49.948Z,99019.00
2022-11-29T04:53:47.417Z,99026.40
2022-11-29T04:56:44.904Z,99027.20
2022-11-29T04:59:42.367Z,99028.80
2022-11-29T05:02:39.880Z,99028.80
2022-11-29T05:05:37.369Z,99029.40
2022-11-29T05:08:34.841Z,99033.20
2022-11-29T05:11:32.277Z,99039.80
2022-11-29T05:14:29.742Z,99042.00
2022-11-29T05:17:27.320Z,99043.40
2022-11-29T05:20:24.792Z,99045.60
2022-11-29T05:23:22.285Z,99046.60
2022-11-29T05:26:19.752Z,99052.80
2022-11-29T05:29:17.213Z,99053.40
2022-11-29T05:32:14.657Z,99057.40
2022-11-29T05:35:12.101Z,99058.40
2022-11-29T05:38:09.626Z,99063.80
2022-11-29T05:41:07.083Z,99062.20
2022-11-29T05:44:04.659Z,99062.40
2022-11-29T05:47:02.150Z,99068.00
2022-11-29T05:50:00.131Z,99067.00
2022-11-29T05:52:57.591Z,99064.20
2022-11-29T05:55:55.074Z,99068.80
2022-11-29T05:58:52.560Z,99070.40
2022-11-29T06:01:50.039Z,99071.20
2022-11-29T06:04:47.675Z,99075.20
2022-11-29T06:07:45.729Z,99077.80
2022-11-29T06:10:43.220Z,99077.60
2022-11-29T06:13:40.683Z,99078.60
2022-11-29T06:16:39.159Z,99085.00
2022-11-29T06:19:37.665Z,99081.40
2022-11-29T06:22:35.110Z,99085.80
2022-11-29T06:25:32.828Z,99088.20
2022-11-29T06:28:30.320Z,99090.40
2022-11-29T06:31:27.804Z,99100.40
2022-11-29T06:34:30.551Z,99099.00
2022-11-29T06:37:28.600Z,99103.00
2022-11-29T06:40:26.058Z,99104.20
2022-11-29T06:43:23.557Z,99108.80
2022-11-29T06:46:21.037Z,99106.60
2022-11-29T06:49:18.542Z,99110.60
2022-11-29T06:52:15.976Z,99114.20
2022-11-29T06:55:13.468Z,99118.20
2022-11-29T06:58:10.937Z,99121.20
2022-11-29T07:01:08.464Z,99119.40
2022-11-29T07:04:05.937Z,99117.40
2022-11-29T07:07:03.365Z,99116.40
2022-11-29T07:10:00.804Z,99118.20
2022-11-29T07:12:58.279Z,99121.40
2022-11-29T07:15:55.816Z,99120.40
2022-11-29T07:18:53.294Z,99120.60
2022-11-29T07:21:50.734Z,99120.20
2022-11-29T07:24:48.291Z,99118.00
2022-11-29T07:27:45.754Z,99124.40
2022-11-29T07:30:43.169Z,99128.40
2022-11-29T07:33:42.114Z,99129.20
2022-11-29T07:36:39.570Z,99134.60
2022-11-29T07:39:37.052Z,99137.00
2022-11-29T07:42:34.522Z,99143.40
2022-11-29T07:45:32.631Z,99140.20
2022-11-29T07:48:30.101Z,99143.00
2022-11-29T07:51:27.555Z,99142.00
2022-11-29T07:54:25.019Z,99140.80
2022-11-29T07:57:22.824Z,99144.20
2022-11-29T08:00:20.387Z,99151.60
2022-11-29T08:03:17.855Z,99156.40
2022-11-29T08:06:15.309Z,99157.40
2022-11-29T08:09:12.772Z,99156.20
2022-11-29T08:12:10.507Z,99160.60
2022-11-29T08:15:07.957Z,99162.40
2022-11-29T08:18:05.453Z,99164.00
2022-11-29T08:21:02.884Z,99162.20
2022-11-29T08:24:00.313Z,99169.80
2022-11-29T08:26:57.806Z,99175.40
2022-11-29T08:29:55.248Z,99177.20
2022-11-29T08:32:52.721Z,99176.80
2022-11-29T08:35:50.199Z,99179.80
2022-11-29T08:38:47.679Z,99174.40
2022-11-29T08:41:45.147Z,99180.60
2022-11-29T08:44:42.760Z,99183.00
2022-11-29T08:47:42.443Z,99178.00
2022-11-29T08:50:39.891Z,99182.20
2022-11-29T08:53:43.402Z,99183.00
2022-11-29T08:59:58.392Z,99188.40
2022-11-29T09:02:55.829Z,99189.80
2022-11-29T09:05:53.283Z,99190.00
2022-11-29T09:08:50.766Z,99189.60
2022-11-29T09:11:49.631Z,99194.20
2022-11-29T09:14:47.419Z,99192.40
2022-11-29T09:17:44.911Z,99194.60
2022-11-29T09:20:42.367Z,99193.00
2022-11-29T09:23:39.830Z,99198.00
2022-11-29T09:26:38.046Z,99192.60
2022-11-29T09:29:35.605Z,99190.80
2022-11-29T09:32:34.303Z,99191.40
2022-11-29T09:35:31.775Z,99188.60
2022-11-29T09:38:29.268Z,99189.20
2022-11-29T09:41:26.734Z,99185.40
2022-11-29T09:44:25.028Z,99188.40
2022-11-29T09:47:22.472Z,99191.60
2022-11-29T09:50:20.019Z,99190.00
2022-11-29T09:53:17.612Z,99191.60
2022-11-29T09:56:15.107Z,99189.80
2022-11-29T09:59:12.591Z,99191.20
2022-11-29T10:02:10.664Z,99186.00
2022-11-29T10:05:08.527Z,99190.60
2022-11-29T10:08:05.977Z,99191.60
2022-11-29T10:11:03.463Z,99184.20
2022-11-29T10:14:00.983Z,99181.60
2022-11-29T10:16:58.489Z,99186.60
2022-11-29T10:19:55.974Z,99183.20
2022-11-29T10:22:54.656Z,99182.40
2022-11-29T10:25:52.094Z,99176.40
2022-11-29T10:28:49.744Z,99173.80
2022-11-29T10:31:49.619Z,99176.80
2022-11-29T10:34:47.795Z,99174.60
2022-11-29T10:38:01.440Z,99169.80
2022-11-29T10:41:03.184Z,99165.60
2022-11-29T10:44:00.646Z,99167.40
2022-11-29T10:46:58.136Z,99169.00
2022-11-29T10:49:56.986Z,99165.80
2022-11-29T10:52:59.803Z,99167.60
2022-11-29T10:55:57.639Z,99169.00
2022-11-29T10:58:55.126Z,99161.40
2022-11-29T11:01:52.645Z,99160.40
2022-11-29T11:04:50.223Z,99160.80
2022-11-29T11:07:47.757Z,99164.20
2022-11-29T11:10:52.520Z,99161.60
2022-11-29T11:13:51.245Z,99161.60
2022-11-29T11:16:48.764Z,99168.40
2022-11-29T11:19:46.232Z,99164.00
2022-11-29T11:22:44.210Z,99168.20
2022-11-29T11:25:41.792Z,99166.60
2022-11-29T11:28:39.325Z,99155.20
2022-11-29T11:31:38.140Z,99165.80
2022-11-29T11:34:35.584Z,99163.20
2022-11-29T11:37:33.061Z,99159.80
2022-11-29T11:40:30.659Z,99164.80
2022-11-29T11:43:28.248Z,99158.20
2022-11-29T11:46:25.728Z,99163.80
2022-11-29T11:49:23.233Z,99160.20
2022-11-29T11:52:22.226Z,99163.80
2022-11-29T11:55:19.698Z,99161.00
2022-11-29T11:58:17.172Z,99166.20
2022-11-29T12:01:14.649Z,99161.20
2022-11-29T12:04:12.140Z,99161.40
2022-11-29T12:07:09.599Z,99162.40
2022-11-29T12:10:07.068Z,99160.00
2022-11-29T12:13:04.553Z,99162.40
2022-11-29T12:16:02.237Z,99162.20
2022-11-29T12:18:59.778Z,99165.20
2022-11-29T12:21:57.233Z,99163.00
2022-11-29T12:24:54.709Z,99158.40
2022-11-29T12:27:52.173Z,99161.20
2022-11-29T12:30:49.719Z,99161.80
2022-11-29T12:33:47.205Z,99162.40
2022-11-29T12:36:44.677Z,99155.80
2022-11-29T12:39:42.494Z,99153.80
2022-11-29T12:42:40.035Z,99153.40
2022-11-29T12:45:37.621Z,99153.20
2022-11-29T12:48:35.089Z,99152.60
2022-11-29T12:51:32.542Z,99162.80
2022-11-29T12:54:29.969Z,99163.60
2022-11-29T12:57:27.433Z,99168.40
2022-11-29T13:00:24.902Z,99160.60
2022-11-29T13:03:22.399Z,99164.60
2022-11-29T13:06:19.907Z,99169.60
2022-11-29T13:09:17.359Z,99166.80
2022-11-29T13:12:14.835Z,99164.20
2022-11-29T13:15:12.276Z,99176.00
2022-11-29T13:18:09.876Z,99175.40
2022-11-29T13:21:07.341Z,99175.00
2022-11-29T13:24:09.232Z,99176.00
2022-11-29T13:27:07.123Z,99181.40
2022-11-29T13:30:04.636Z,99178.00
2022-11-29T13:33:02.083Z,99181.60
2022-11-29T13:35:59.557Z,99183.80
2022-11-29T13:38:56.992Z,99184.60
2022-11-29T13:41:54.463Z,99191.40
2022-11-29T13:44:51.916Z,99184.40
2022-11-29T13:47:49.515Z,99191.40
2022-11-29T13:50:46.988Z,99196.20
2022-11-29T13:53:48.768Z,99194.80
2022-11-29T13:56:47.244Z,99198.40
2022-11-29T13:59:47.640Z,99201.00
2022-11-29T14:02:45.381Z,99199.20
2022-11-29T14:05:43.038Z,99202.80
2022-11-29T14:09:10.751Z,99206.00
2022-11-29T14:11:58.988Z,99204.60
2022-11-29T14:14:56.449Z,99208.20
2022-11-29T14:17:53.958Z,99205.00
2022-11-29T14:20:51.397Z,99203.40
2022-11-29T14:23:48.877Z,99204.60
2022-11-29T14:26:46.317Z,99207.40
2022-11-29T14:29:43.788Z,99208.40
2022-11-29T14:32:45.907Z,99209.60
2022-11-29T14:35:43.989Z,99214.80
2022-11-29T14:38:41.499Z,99217.00
2022-11-29T14:41:38.971Z,99218.60
2022-11-29T14:44:36.433Z,99218.20
2022-11-29T14:47:34.460Z,99219.20
2022-11-29T14:50:31.954Z,99218.20
2022-11-29T14:53:29.403Z,99227.80
2022-11-29T14:56:26.854Z,99226.40
2022-11-29T14:59:24.294Z,99229.20
2022-11-29T15:02:21.843Z,99225.80
2022-11-29T15:05:19.895Z,99224.00
2022-11-29T15:08:17.487Z,99232.20
2022-11-29T15:11:14.945Z,99231.80
2022-11-29T15:14:12.536Z,99236.20
2022-11-29T15:17:10.011Z,99238.60
2022-11-29T15:20:07.456Z,99237.60
2022-11-29T15:23:04.955Z,99242.40
2022-11-29T15:26:02.592Z,99246.60
2022-11-29T15:29:00.107Z,99247.20
2022-11-29T15:31:57.636Z,99249.40
2022-11-29T15:34:55.180Z,99248.00
2022-11-29T15:37:52.690Z,99252.40
2022-11-29T15:40:52.815Z,99246.60
2022-11-29T15:43:50.275Z,99251.00
2022-11-29T15:46:47.775Z,99252.00
2022-11-29T15:49:45.239Z,99250.60
2022-11-29T15:52:43.193Z,99246.00
2022-11-29T15:55:40.755Z,99247.60
2022-11-29T15:58:38.232Z,99248.00
2022-11-29T16:01:35.728Z,99248.60
2022-11-29T16:04:33.287Z,99252.80
2022-11-29T16:07:32.724Z,99253.00
2022-11-29T16:10:34.982Z,99259.20
2022-11-29T16:13:33.173Z,99256.80
2022-11-29T16:16:32.980Z,99261.60
2022-11-29T16:19:30.524Z,99261.80
2022-11-29T16:22:27.984Z,99260.40
2022-11-29T16:25:25.441Z,99261.40
2022-11-29T16:28:22.919Z,99262.40
2022-11-29T16:31:20.928Z,99261.00
2022-11-29T16:34:19.652Z,99264.80
2022-11-29T16:37:17.194Z,99264.60
2022-11-29T16:40:15.223Z,99262.00
2022-11-29T16:43:12.667Z,99269.60
2022-11-29T16:46:10.382Z,99267.20
2022-11-29T16:49:09.542Z,99266.00
2022-11-29T16:52:08.923Z,99268.40
2022-11-29T16:55:06.975Z,99275.80
2022-11-29T16:58:06.084Z,99275.80
2022-11-29T17:01:05.170Z,99275.80
2022-11-29T17:04:02.778Z,99283.60
2022-11-29T17:07:01.327Z,99285.40
2022-11-29T17:09:59.137Z,99282.20
2022-11-29T17:12:57.059Z,99284.00
2022-11-29T17:15:55.132Z,99288.60
2022-11-29T17:18:54.949Z,99293.60
2022-11-29T17:21:53.438Z,99292.80
2022-11-29T17:24:51.297Z,99295.00
2022-11-29T17:27:51.327Z,99307.20
2022-11-29T17:30:49.377Z,99303.40
2022-11-29T17:33:47.103Z,99306.00
2022-11-29T17:36:45.858Z,99303.60
2022-11-29T17:39:47.421Z,99304.40
2022-11-29T17:42:46.225Z,99307.80
2022-11-29T17:45:44.772Z,99311.80
2022-11-29T17:48:45.646Z,99313.00
2022-11-29T17:51:53.143Z,99312.00
2022-11-29T17:54:51.318Z,99316.40
2022-11-29T17:57:50.289Z,99318.80
2022-11-29T18:00:48.799Z,99320.00
2022-11-29T18:03:46.604Z,99325.00
2022-11-29T18:06:44.197Z,99328.00
2022-11-29T18:09:42.236Z,99329.80
2022-11-29T18:12:41.440Z,99327.60
2022-11-29T18:15:38.969Z,99323.80
2022-11-29T18:18:37.039Z,99323.60
2022-11-29T18:21:34.507Z,99321.60
2022-11-29T18:24:32.636Z,99326.40
2022-11-29T18:27:31.186Z,99325.00
2022-11-29T18:30:32.644Z,99327.00
2022-11-29T18:33:31.168Z,99327.40
2022-11-29T18:36:29.578Z,99326.00
2022-11-29T18:39:28.236Z,99324.20
2022-11-29T18:42:27.160Z,99327.80
2022-11-29T18:45:25.818Z,99327.80
2022-11-29T18:48:24.403Z,99331.60
2022-11-29T18:51:22.700Z,99333.60
2022-11-29T18:54:21.345Z,99336.00
2022-11-29T18:57:21.893Z,99332.40
2022-11-29T19:00:23.725Z,99341.80
2022-11-29T19:03:22.333Z,99345.80
2022-11-29T19:06:21.568Z,99347.80
2022-11-29T19:09:21.830Z,99347.80
2022-11-29T19:12:22.977Z,99345.40
2022-11-29T19:15:21.712Z,99339.60
2022-11-29T19:18:20.698Z,99340.00
2022-11-29T19:21:18.216Z,99345.00
2022-11-29T19:24:18.446Z,99342.60
2022-11-29T19:27:17.281Z,99343.00
2022-11-29T19:30:16.932Z,99343.20
2022-11-29T19:33:15.565Z,99340.20
2022-11-29T19:36:19.230Z,99340.00
2022-11-29T19:39:17.807Z,99346.80
2022-11-29T19:42:19.023Z,99355.40
2022-11-29T19:45:18.294Z,99356.00
2022-11-29T19:48:16.061Z,99361.40
2022-11-29T19:51:13.547Z,99355.20
2022-11-29T19:54:12.480Z,99359.60
2022-11-29T19:57:11.074Z,99361.60
2022-11-29T20:00:09.964Z,99361.40
2022-11-29T20:03:08.651Z,99362.40
2022-11-29T20:06:08.973Z,99362.00
2022-11-29T20:09:08.118Z,99362.00
2022-11-29T20:12:06.274Z,99360.60
2022-11-29T20:15:05.343Z,99360.20
2022-11-29T20:18:05.493Z,99360.60
2022-11-29T20:21:04.210Z,99361.60
2022-11-29T20:24:06.531Z,99361.00
2022-11-29T20:27:10.285Z,99364.60
2022-11-29T20:30:12.868Z,99364.20
2022-11-29T20:33:11.536Z,99365.60
2022-11-29T20:36:10.674Z,99367.00
2022-11-29T20:39:09.398Z,99367.40
2022-11-29T20:42:07.729Z,99366.20
2022-11-29T20:45:06.629Z,99368.80
2022-11-29T20:48:07.048Z,99369.20
2022-11-29T20:51:06.341Z,99367.40
2022-11-29T20:54:05.018Z,99371.60
2022-11-29T20:57:04.125Z,99371.40
2022-11-29T21:00:02.715Z,99375.80
2022-11-29T21:03:00.824Z,99373.20
2022-11-29T21:05:58.318Z,99370.60
2022-11-29T21:08:55.794Z,99372.00
2022-11-29T21:11:54.544Z,99378.00
2022-11-29T21:14:52.743Z,99379.40
2022-11-29T21:17:50.864Z,99378.80
2022-11-29T21:20:48.392Z,99379.00
2022-11-29T21:23:45.852Z,99381.00
2022-11-29T21:26:43.812Z,99384.40
2022-11-29T21:29:41.291Z,99383.40
2022-11-29T21:32:39.123Z,99388.40
2022-11-29T21:35:37.731Z,99381.20
2022-11-29T21:38:35.233Z,99381.80
2022-11-29T21:41:32.684Z,99381.20
2022-11-29T21:44:30.153Z,99383.40
2022-11-29T21:47:27.636Z,99377.00
2022-11-29T21:50:25.104Z,99380.60
2022-11-29T21:53:22.589Z,99381.80
2022-11-29T21:56:20.059Z,99380.20
2022-11-29T21:59:17.529Z,99374.20
2022-11-29T22:02:15.102Z,99373.20
2022-11-29T22:05:12.697Z,99375.60
2022-11-29T22:08:10.140Z,99370.40
2022-11-29T22:11:07.602Z,99373.00
2022-11-29T22:14:18.411Z,99368.20
2022-11-29T22:17:16.136Z,99369.80
2022-11-29T22:20:13.588Z,99373.60
2022-11-29T22:23:11.038Z,99377.60
2022-11-29T22:26:08.547Z,99373.20
2022-11-29T22:29:05.989Z,99377.20
2022-11-29T22:32:03.474Z,99367.40
2022-11-29T22:35:00.948Z,99364.60
2022-11-29T22:37:58.390Z,99360.00
2022-11-29T22:40:55.853Z,99364.40
2022-11-29T22:43:53.297Z,99362.40
2022-11-29T22:46:50.916Z,99360.20
2022-11-29T22:49:49.577Z,99361.60
2022-11-29T22:52:47.025Z,99362.00
2022-11-29T22:55:44.482Z,99358.80
2022-11-29T22:58:41.949Z,99360.20
2022-11-29T23:01:39.423Z,99362.40
2022-11-29T23:04:36.927Z,99361.40
2022-11-29T23:07:34.651Z,99366.20
2022-11-29T23:10:32.138Z,99365.20
2022-11-29T23:13:29.596Z,99370.60
2022-11-29T23:16:27.129Z,99367.20
2022-11-29T23:19:24.653Z,99369.80
2022-11-29T23:22:22.115Z,99373.20
2022-11-29T23:25:19.568Z,99372.60
2022-11-29T23:28:17.028Z,99374.00
2022-11-29T23:31:14.557Z,99369.40
2022-11-29T23:34:12.067Z,99373.40
2022-11-29T23:37:09.830Z,99368.20
2022-11-29T23:40:07.276Z,99371.20
2022-11-29T23:43:04.738Z,99374.60
2022-11-29T23:46:02.287Z,99366.60
2022-11-29T23:48:59.764Z,99363.00
2022-11-29T23:51:57.209Z,99364.20
2022-11-29T23:54:54.664Z,99361.40
2022-11-29T23:57:52.122Z,99359.20
